Time;durP1;ratioP1;P1;durP2;ratioP2;P2;SDS_P1;SDS_P2;PMS_P1;PMS_P2;Temp;Humidity;BMP_temperature;BMP_pressure;BME280_temperature;BME280_humidity;BME280_pressure;Samples;Min_cycle;Max_cycle;Signal;HPM_P1;HPM_P2
2022/04/02 05:02:31;;;;;;;1999.90;999.90;;;;;;;;;;5186448;22;20498;-67
2022/04/02 05:05:16;;;;;;;1999.90;999.90;;;;;;;;;;5023696;28;20210;-68
2022/04/02 05:08:01;;;;;;;1999.90;999.90;;;;;;;;;;5016193;28;20209;-68
2022/04/02 05:10:45;;;;;;;1999.90;999.90;;;;;;;;;;5032183;28;20226;-66
2022/04/02 05:13:30;;;;;;;1999.90;999.90;;;;;;;;;;5032305;28;20249;-68
2022/04/02 05:16:15;;;;;;;1999.90;999.90;;;;;;;;;;5032253;28;20205;-68
2022/04/02 05:19:02;;;;;;;1999.90;999.90;;;;;;;;;;5031316;28;20218;-67
2022/04/02 05:21:47;;;;;;;1999.90;999.90;;;;;;;;;;5014568;28;20460;-68
2022/04/02 05:24:32;;;;;;;1999.90;999.90;;;;;;;;;;5012365;28;20210;-70
2022/04/02 05:27:17;;;;;;;1999.90;999.90;;;;;;;;;;5012123;28;20567;-70
2022/04/02 05:30:03;;;;;;;1999.90;999.90;;;;;;;;;;5012044;28;20685;-67
2022/04/02 05:32:48;;;;;;;1999.90;999.90;;;;;;;;;;5012293;28;20209;-70
2022/04/02 05:35:34;;;;;;;1999.90;999.90;;;;;;;;;;5010960;28;20780;-68
2022/04/02 05:38:19;;;;;;;1999.90;999.90;;;;;;;;;;5011163;28;20320;-67
2022/04/02 05:41:04;;;;;;;1999.90;999.90;;;;;;;;;;5012110;28;20261;-70
2022/04/02 05:43:49;;;;;;;1999.90;999.90;;;;;;;;;;5012196;28;20348;-69
2022/04/02 05:46:34;;;;;;;1999.90;999.90;;;;;;;;;;5012120;28;20202;-69
2022/04/02 05:49:19;;;;;;;1999.90;999.90;;;;;;;;;;5011299;28;20270;-70
2022/04/02 05:52:07;;;;;;;1999.90;999.90;;;;;;;;;;5011777;28;20225;-70
2022/04/02 05:54:52;;;;;;;1999.90;999.90;;;;;;;;;;5012003;28;20212;-70
2022/04/02 05:57:37;;;;;;;1999.90;999.90;;;;;;;;;;5022986;28;20464;-71
2022/04/02 06:00:23;;;;;;;1999.90;999.90;;;;;;;;;;5031673;28;20232;-69
2022/04/02 06:03:08;;;;;;;1999.90;999.90;;;;;;;;;;5030504;28;20384;-69
2022/04/02 06:05:53;;;;;;;1999.90;999.90;;;;;;;;;;5031732;28;20326;-69
2022/04/02 06:08:40;;;;;;;1999.90;999.90;;;;;;;;;;5030853;28;20330;-68
2022/04/02 06:11:25;;;;;;;1999.90;999.90;;;;;;;;;;5031445;28;20438;-69
2022/04/02 06:14:10;;;;;;;1999.90;999.90;;;;;;;;;;5031605;28;20418;-69
2022/04/02 06:16:55;;;;;;;1999.90;999.90;;;;;;;;;;5032206;28;20448;-69
2022/04/02 06:19:40;;;;;;;1999.90;999.90;;;;;;;;;;5033300;28;21129;-69
2022/04/02 06:22:25;;;;;;;1999.90;999.90;;;;;;;;;;5026152;28;20809;-69
2022/04/02 06:25:11;;;;;;;1999.90;999.90;;;;;;;;;;5015572;28;20989;-69
2022/04/02 06:27:57;;;;;;;1999.90;999.90;;;;;;;;;;5033059;28;20422;-69
2022/04/02 06:30:41;;;;;;;1999.90;999.90;;;;;;;;;;5031919;28;20457;-69
2022/04/02 06:33:27;;;;;;;1999.90;999.90;;;;;;;;;;5015479;28;20412;-67
2022/04/02 06:36:12;;;;;;;1999.90;999.90;;;;;;;;;;5015168;28;20334;-68
2022/04/02 06:38:57;;;;;;;1999.90;999.90;;;;;;;;;;5014166;28;20477;-69
2022/04/02 06:41:44;;;;;;;1999.90;999.90;;;;;;;;;;5015358;28;20981;-69
2022/04/02 06:44:30;;;;;;;1999.90;999.90;;;;;;;;;;5016100;28;20423;-69
2022/04/02 06:47:15;;;;;;;1999.90;999.90;;;;;;;;;;5015402;28;20211;-69
2022/04/02 06:50:02;;;;;;;1999.90;999.90;;;;;;;;;;5026843;28;20206;-69
2022/04/02 06:52:47;;;;;;;1999.90;999.90;;;;;;;;;;5034804;28;20330;-68
2022/04/02 06:55:32;;;;;;;1999.90;999.90;;;;;;;;;;5034841;28;20206;-69
2022/04/02 06:58:23;;;;;;;1999.90;999.90;;;;;;;;;;5033896;28;20216;-69
2022/04/02 07:01:07;;;;;;;1999.90;999.90;;;;;;;;;;5034517;28;20233;-69
2022/04/02 07:03:53;;;;;;;1999.90;999.90;;;;;;;;;;5034691;28;20431;-70
2022/04/02 07:06:44;;;;;;;1999.90;999.90;;;;;;;;;;5034374;28;20202;-69
2022/04/02 07:09:29;;;;;;;1999.90;999.90;;;;;;;;;;5034194;28;20214;-67
2022/04/02 07:12:13;;;;;;;1999.90;999.90;;;;;;;;;;5034443;28;20221;-68
2022/04/02 07:15:00;;;;;;;1999.90;999.90;;;;;;;;;;5034430;28;20206;-68
2022/04/02 07:17:44;;;;;;;1999.90;999.90;;;;;;;;;;5033937;28;20249;-69
2022/04/02 07:20:30;;;;;;;1999.90;999.90;;;;;;;;;;5021165;28;20206;-65
2022/04/02 07:23:15;;;;;;;1999.90;999.90;;;;;;;;;;5014545;28;20688;-69
2022/04/02 07:26:00;;;;;;;1999.90;999.90;;;;;;;;;;5021335;28;20683;-67
2022/04/02 07:28:45;;;;;;;1999.90;999.90;;;;;;;;;;5024995;28;20707;-68
2022/04/02 07:31:31;;;;;;;1999.90;999.90;;;;;;;;;;5016823;28;20226;-68
2022/04/02 07:34:16;;;;;;;1999.90;999.90;;;;;;;;;;5018799;28;20747;-68
2022/04/02 07:37:05;;;;;;;1999.90;999.90;;;;;;;;;;5033800;28;20301;-68
2022/04/02 07:39:54;;;;;;;1999.90;999.90;;;;;;;;;;5030136;28;20521;-68
2022/04/02 07:42:45;;;;;;;1999.90;999.90;;;;;;;;;;5030163;28;20344;-68
2022/04/02 07:45:32;;;;;;;1999.90;999.90;;;;;;;;;;5013960;28;20234;-70
2022/04/02 07:48:19;;;;;;;1999.90;999.90;;;;;;;;;;5025142;28;20202;-68
2022/04/02 07:51:09;;;;;;;1999.90;999.90;;;;;;;;;;5013699;28;20310;-70
2022/04/02 07:53:55;;;;;;;1999.90;999.90;;;;;;;;;;5029397;28;20915;-68
2022/04/02 07:56:43;;;;;;;1999.90;999.90;;;;;;;;;;5033509;28;20297;-69
2022/04/02 07:59:32;;;;;;;1999.90;999.90;;;;;;;;;;5030788;28;20214;-70
2022/04/02 08:05:22;;;;;;;1999.90;999.90;;;;;;;;;;5013500;28;20199;-69
2022/04/02 08:08:08;;;;;;;1999.90;999.90;;;;;;;;;;5015120;28;20260;-69
2022/04/02 08:10:53;;;;;;;1999.90;999.90;;;;;;;;;;5018046;28;20358;-69
2022/04/02 08:13:40;;;;;;;1999.90;999.90;;;;;;;;;;5033075;28;20222;-69
2022/04/02 08:16:25;;;;;;;1999.90;999.90;;;;;;;;;;5033090;28;20203;-69
2022/04/02 08:19:11;;;;;;;1999.90;999.90;;;;;;;;;;5032123;28;20226;-68
2022/04/02 08:21:57;;;;;;;1999.90;999.90;;;;;;;;;;5023375;28;20234;-69
2022/04/02 08:24:42;;;;;;;1999.90;999.90;;;;;;;;;;5032904;28;20288;-69
2022/04/02 08:27:31;;;;;;;1999.90;999.90;;;;;;;;;;5032851;28;20334;-70
2022/04/02 08:30:17;;;;;;;1999.90;999.90;;;;;;;;;;5024274;28;20247;-69
2022/04/02 08:33:29;;;;;;;1999.90;999.90;;;;;;;;;;5012955;28;20206;-70
2022/04/02 08:36:20;;;;;;;1999.90;999.90;;;;;;;;;;4985075;28;20226;-70
2022/04/02 08:39:09;;;;;;;1999.90;999.90;;;;;;;;;;5010609;28;20519;-70
2022/04/02 08:42:05;;;;;;;1999.90;999.90;;;;;;;;;;5017739;28;20229;-69
2022/04/02 08:45:04;;;;;;;1999.90;999.90;;;;;;;;;;5016152;28;20745;-69
2022/04/02 08:48:07;;;;;;;1999.90;999.90;;;;;;;;;;5012140;28;20671;-67
2022/04/02 08:50:55;;;;;;;1999.90;999.90;;;;;;;;;;5027597;28;20221;-66
2022/04/02 08:53:48;;;;;;;1999.90;999.90;;;;;;;;;;5012701;28;20269;-68
2022/04/02 08:56:38;;;;;;;1999.90;999.90;;;;;;;;;;5012718;28;20337;-69
2022/04/02 08:59:32;;;;;;;1999.90;999.90;;;;;;;;;;5011637;28;20709;-69
2022/04/02 09:02:34;;;;;;;1999.90;999.90;;;;;;;;;;5029812;28;20239;-70
2022/04/02 09:05:22;;;;;;;1999.90;999.90;;;;;;;;;;5032133;28;20205;-69
2022/04/02 09:08:29;;;;;;;1999.90;999.90;;;;;;;;;;5012747;28;20692;-69
2022/04/02 09:11:21;;;;;;;1999.90;999.90;;;;;;;;;;5021524;28;20900;-69
2022/04/02 09:14:14;;;;;;;1999.90;999.90;;;;;;;;;;5014805;28;20270;-71
2022/04/02 09:17:03;;;;;;;1999.90;999.90;;;;;;;;;;5032010;28;20201;-70
2022/04/02 09:19:51;;;;;;;1999.90;999.90;;;;;;;;;;5016042;28;20227;-71
2022/04/02 09:22:45;;;;;;;1999.90;999.90;;;;;;;;;;5011995;28;20593;-71
2022/04/02 09:25:41;;;;;;;1999.90;999.90;;;;;;;;;;5012140;28;20211;-70
2022/04/02 09:28:46;;;;;;;1999.90;999.90;;;;;;;;;;5011454;28;20239;-70
2022/04/02 09:32:01;;;;;;;1999.90;999.90;;;;;;;;;;5022927;28;20234;-70
2022/04/02 09:35:07;;;;;;;1999.90;999.90;;;;;;;;;;5020557;28;20202;-71
2022/04/02 09:38:10;;;;;;;1999.90;999.90;;;;;;;;;;5011106;28;20202;-70
2022/04/02 09:41:03;;;;;;;1999.90;999.90;;;;;;;;;;5017409;28;21024;-70
2022/04/02 09:43:50;;;;;;;1999.90;999.90;;;;;;;;;;5027017;28;20333;-70
2022/04/02 09:46:58;;;;;;;1999.90;999.90;;;;;;;;;;5020518;28;20237;-69
2022/04/02 09:49:50;;;;;;;1999.90;999.90;;;;;;;;;;5029718;28;20198;-70
2022/04/02 09:52:38;;;;;;;1999.90;999.90;;;;;;;;;;5015669;28;20223;-70
2022/04/02 09:55:24;;;;;;;1999.90;999.90;;;;;;;;;;5015701;28;20330;-70
2022/04/02 09:58:19;;;;;;;1999.90;999.90;;;;;;;;;;5015000;28;20207;-70
2022/04/02 10:01:04;;;;;;;1999.90;999.90;;;;;;;;;;5015648;28;20312;-70
2022/04/02 10:03:52;;;;;;;1999.90;999.90;;;;;;;;;;5016740;28;20220;-69
2022/04/02 10:06:39;;;;;;;1999.90;999.90;;;;;;;;;;5021499;28;20575;-69
2022/04/02 10:09:31;;;;;;;1999.90;999.90;;;;;;;;;;5033008;28;20325;-71
2022/04/02 10:12:17;;;;;;;1999.90;999.90;;;;;;;;;;5035385;28;20226;-70
2022/04/02 10:15:03;;;;;;;1999.90;999.90;;;;;;;;;;5031408;28;20236;-69
2022/04/02 10:17:51;;;;;;;1999.90;999.90;;;;;;;;;;5034745;28;20301;-69
2022/04/02 10:20:36;;;;;;;1999.90;999.90;;;;;;;;;;5034945;28;20231;-69
2022/04/02 10:23:22;;;;;;;1999.90;999.90;;;;;;;;;;5025932;28;20208;-69
2022/04/02 10:26:15;;;;;;;1999.90;999.90;;;;;;;;;;5033343;28;20206;-71
2022/04/02 10:29:08;;;;;;;1999.90;999.90;;;;;;;;;;5034385;28;20231;-70
2022/04/02 10:32:00;;;;;;;1999.90;999.90;;;;;;;;;;5026811;28;20232;-68
2022/04/02 10:34:49;;;;;;;1999.90;999.90;;;;;;;;;;5017489;28;20346;-70
2022/04/02 10:37:38;;;;;;;1999.90;999.90;;;;;;;;;;5028963;28;20210;-70
2022/04/02 10:40:25;;;;;;;1999.90;999.90;;;;;;;;;;5025583;28;20570;-69
2022/04/02 10:43:16;;;;;;;1999.90;999.90;;;;;;;;;;5016396;28;20684;-69
2022/04/02 10:46:03;;;;;;;1999.90;999.90;;;;;;;;;;5034886;28;20230;-70
2022/04/02 10:48:54;;;;;;;1999.90;999.90;;;;;;;;;;5027517;28;20581;-69
2022/04/02 10:51:42;;;;;;;1999.90;999.90;;;;;;;;;;5024535;28;20782;-69
2022/04/02 10:54:28;;;;;;;1999.90;999.90;;;;;;;;;;5038875;28;20693;-70
2022/04/02 10:57:13;;;;;;;1999.90;999.90;;;;;;;;;;5022786;28;20211;-69
2022/04/02 11:00:03;;;;;;;1999.90;999.90;;;;;;;;;;5025808;28;20226;-69
2022/04/02 11:02:49;;;;;;;1999.90;999.90;;;;;;;;;;5015010;28;20351;-69
2022/04/02 11:05:35;;;;;;;1999.90;999.90;;;;;;;;;;5031171;28;20691;-71
2022/04/02 11:08:22;;;;;;;1999.90;999.90;;;;;;;;;;5013242;28;20209;-72
2022/04/02 11:11:15;;;;;;;1999.90;999.90;;;;;;;;;;5014354;28;20279;-70
2022/04/02 11:14:02;;;;;;;1999.90;999.90;;;;;;;;;;5024637;28;20693;-70
2022/04/02 11:16:48;;;;;;;1999.90;999.90;;;;;;;;;;5032939;28;20255;-69
2022/04/02 11:19:57;;;;;;;1999.90;999.90;;;;;;;;;;5017918;28;20226;-71
2022/04/02 11:22:57;;;;;;;1999.90;999.90;;;;;;;;;;5014394;28;20636;-70
2022/04/02 11:25:45;;;;;;;1999.90;999.90;;;;;;;;;;5014296;28;20263;-70
2022/04/02 11:28:37;;;;;;;1999.90;999.90;;;;;;;;;;5013464;28;20225;-70
2022/04/02 11:31:28;;;;;;;1999.90;999.90;;;;;;;;;;5014252;28;20741;-70
2022/04/02 11:34:19;;;;;;;1999.90;999.90;;;;;;;;;;5014281;28;20208;-68
2022/04/02 11:37:07;;;;;;;1999.90;999.90;;;;;;;;;;5014262;28;20200;-70
2022/04/02 11:39:53;;;;;;;1999.90;999.90;;;;;;;;;;5013338;28;20225;-70
2022/04/02 11:42:40;;;;;;;1999.90;999.90;;;;;;;;;;5013963;28;20656;-70
2022/04/02 11:45:25;;;;;;;1999.90;999.90;;;;;;;;;;5014249;28;20572;-70
2022/04/02 11:48:10;;;;;;;1999.90;999.90;;;;;;;;;;5013295;28;20208;-70
2022/04/02 11:50:58;;;;;;;1999.90;999.90;;;;;;;;;;5013948;28;20224;-70
2022/04/02 11:53:44;;;;;;;1999.90;999.90;;;;;;;;;;5014203;28;20212;-70
2022/04/02 11:56:30;;;;;;;1999.90;999.90;;;;;;;;;;5013881;28;20212;-70
2022/04/02 11:59:16;;;;;;;1999.90;999.90;;;;;;;;;;5012971;28;20344;-70
2022/04/02 12:02:02;;;;;;;1999.90;999.90;;;;;;;;;;5013280;28;20333;-70
2022/04/02 12:04:47;;;;;;;1999.90;999.90;;;;;;;;;;5013700;28;20295;-70
2022/04/02 12:07:40;;;;;;;1999.90;999.90;;;;;;;;;;5013591;28;20202;-70
2022/04/02 12:10:27;;;;;;;1999.90;999.90;;;;;;;;;;5013215;28;20883;-71
2022/04/02 12:13:12;;;;;;;1999.90;999.90;;;;;;;;;;5013617;28;20207;-70
2022/04/02 12:16:02;;;;;;;1999.90;999.90;;;;;;;;;;5012418;28;20208;-70
2022/04/02 12:18:57;;;;;;;1999.90;999.90;;;;;;;;;;5012743;28;20225;-70
2022/04/02 12:21:43;;;;;;;1999.90;999.90;;;;;;;;;;5013363;28;20228;-70
2022/04/02 12:24:38;;;;;;;1999.90;999.90;;;;;;;;;;5013131;28;20574;-70
2022/04/02 12:27:24;;;;;;;1999.90;999.90;;;;;;;;;;5012990;28;20199;-70
2022/04/02 12:30:10;;;;;;;1999.90;999.90;;;;;;;;;;5012963;28;20256;-69
2022/04/02 12:33:05;;;;;;;1999.90;999.90;;;;;;;;;;5013313;28;20572;-70
2022/04/02 12:35:56;;;;;;;1999.90;999.90;;;;;;;;;;5013388;28;20208;-70
2022/04/02 12:38:41;;;;;;;1999.90;999.90;;;;;;;;;;5012402;28;20201;-69
2022/04/02 12:41:29;;;;;;;1999.90;999.90;;;;;;;;;;5013006;28;20252;-71
2022/04/02 12:44:18;;;;;;;1999.90;999.90;;;;;;;;;;5013138;28;20215;-69
2022/04/02 12:47:10;;;;;;;1999.90;999.90;;;;;;;;;;5013011;28;20576;-70
2022/04/02 12:49:55;;;;;;;1999.90;999.90;;;;;;;;;;5012284;28;20212;-70
2022/04/02 12:52:46;;;;;;;1999.90;999.90;;;;;;;;;;5012829;28;20232;-70
2022/04/02 12:55:32;;;;;;;1999.90;999.90;;;;;;;;;;5012782;28;20623;-70
2022/04/02 12:58:19;;;;;;;1999.90;999.90;;;;;;;;;;5012084;28;20759;-70
2022/04/02 13:01:09;;;;;;;1999.90;999.90;;;;;;;;;;5012333;28;20255;-70
2022/04/02 13:04:06;;;;;;;1999.90;999.90;;;;;;;;;;5012661;28;20208;-69
2022/04/02 13:06:51;;;;;;;1999.90;999.90;;;;;;;;;;5012686;28;20279;-69
2022/04/02 13:09:36;;;;;;;1999.90;999.90;;;;;;;;;;5011905;28;20236;-71
2022/04/02 13:12:22;;;;;;;1999.90;999.90;;;;;;;;;;5012465;28;20236;-69
2022/04/02 13:15:11;;;;;;;1999.90;999.90;;;;;;;;;;5012497;28;20205;-69
2022/04/02 13:21:01;;;;;;;1999.90;999.90;;;;;;;;;;5012040;28;20776;-70
2022/04/02 13:24:01;;;;;;;1999.90;999.90;;;;;;;;;;5012419;28;20700;-69
2022/04/02 13:26:54;;;;;;;1999.90;999.90;;;;;;;;;;5012012;28;20285;-70
2022/04/02 13:29:50;;;;;;;1999.90;999.90;;;;;;;;;;5011506;28;20217;-70
2022/04/02 13:33:02;;;;;;;1999.90;999.90;;;;;;;;;;5012264;28;20236;-71
2022/04/02 13:35:50;;;;;;;1999.90;999.90;;;;;;;;;;4976226;28;20340;-71
2022/04/02 13:38:51;;;;;;;1999.90;999.90;;;;;;;;;;5011522;28;20727;-70
2022/04/02 13:41:37;;;;;;;1999.90;999.90;;;;;;;;;;5011807;28;20418;-71
2022/04/02 13:44:24;;;;;;;1999.90;999.90;;;;;;;;;;5010641;28;20762;-70
2022/04/02 13:47:10;;;;;;;1999.90;999.90;;;;;;;;;;5012179;28;20251;-70
2022/04/02 13:49:56;;;;;;;1999.90;999.90;;;;;;;;;;5011372;28;20710;-68
2022/04/02 13:52:53;;;;;;;1999.90;999.90;;;;;;;;;;5012263;28;20262;-70
2022/04/02 13:55:39;;;;;;;1999.90;999.90;;;;;;;;;;5012085;28;20208;-70
2022/04/02 13:58:31;;;;;;;1999.90;999.90;;;;;;;;;;5011326;28;20204;-70
2022/04/02 14:01:17;;;;;;;1999.90;999.90;;;;;;;;;;5011641;28;20287;-69
2022/04/02 14:04:04;;;;;;;1999.90;999.90;;;;;;;;;;5012039;28;20336;-70
2022/04/02 14:06:54;;;;;;;1999.90;999.90;;;;;;;;;;5011975;28;20211;-70
2022/04/02 14:09:42;;;;;;;1999.90;999.90;;;;;;;;;;5011272;28;20200;-70
2022/04/02 14:12:31;;;;;;;1999.90;999.90;;;;;;;;;;5011807;28;20351;-70
2022/04/02 14:15:16;;;;;;;1999.90;999.90;;;;;;;;;;5012188;28;20213;-69
2022/04/02 14:18:03;;;;;;;1999.90;999.90;;;;;;;;;;5011222;28;20299;-70
2022/04/02 14:20:50;;;;;;;1999.90;999.90;;;;;;;;;;5011617;28;20738;-70
2022/04/02 14:23:37;;;;;;;1999.90;999.90;;;;;;;;;;5011874;28;20695;-70
2022/04/02 14:26:31;;;;;;;1999.90;999.90;;;;;;;;;;5011920;28;20226;-70
2022/04/02 14:29:25;;;;;;;1999.90;999.90;;;;;;;;;;5010740;28;20279;-69
2022/04/02 14:32:33;;;;;;;1999.90;999.90;;;;;;;;;;5011745;28;20667;-69
2022/04/02 14:35:28;;;;;;;1999.90;999.90;;;;;;;;;;5011745;28;20247;-70
2022/04/02 14:38:31;;;;;;;1999.90;999.90;;;;;;;;;;5011963;28;20198;-71
2022/04/02 14:41:27;;;;;;;1999.90;999.90;;;;;;;;;;5015052;28;20599;-68
2022/04/02 14:44:32;;;;;;;1999.90;999.90;;;;;;;;;;5015067;28;20412;-70
2022/04/02 15:00:53;;;;;;;1999.90;999.90;;;;;;;;;;5171288;27;20533;-69
2022/04/02 15:03:52;;;;;;;1999.90;999.90;;;;;;;;;;5171462;27;20667;-69
2022/04/02 15:06:45;;;;;;;1999.90;999.90;;;;;;;;;;5171396;27;20205;-69
2022/04/02 15:09:49;;;;;;;1999.90;999.90;;;;;;;;;;5170597;27;20294;-69
2022/04/02 15:12:38;;;;;;;1999.90;999.90;;;;;;;;;;5171444;27;20714;-69
2022/04/02 15:15:28;;;;;;;1999.90;999.90;;;;;;;;;;5170746;27;20547;-69
2022/04/02 15:18:20;;;;;;;1999.90;999.90;;;;;;;;;;5170681;27;20203;-69
2022/04/02 15:21:09;;;;;;;1999.90;999.90;;;;;;;;;;5172352;27;20246;-69
2022/04/02 15:24:09;;;;;;;1999.90;999.90;;;;;;;;;;5171642;27;20264;-69
2022/04/02 15:26:54;;;;;;;1999.90;999.90;;;;;;;;;;5171063;27;20711;-70
2022/04/02 15:29:41;;;;;;;1999.90;999.90;;;;;;;;;;5170169;27;20221;-69
2022/04/02 15:32:26;;;;;;;1999.90;999.90;;;;;;;;;;5171062;27;20347;-67
2022/04/02 15:35:13;;;;;;;1999.90;999.90;;;;;;;;;;5171071;27;20197;-67
2022/04/02 15:37:58;;;;;;;1999.90;999.90;;;;;;;;;;5170230;27;20292;-68
2022/04/02 15:40:51;;;;;;;1999.90;999.90;;;;;;;;;;5170902;27;20224;-67
2022/04/02 15:43:37;;;;;;;1999.90;999.90;;;;;;;;;;5170902;27;20280;-68
2022/04/02 15:46:32;;;;;;;1999.90;999.90;;;;;;;;;;5170788;27;20200;-68
2022/04/02 15:49:30;;;;;;;1999.90;999.90;;;;;;;;;;5169822;27;20220;-68
2022/04/02 15:52:20;;;;;;;1999.90;999.90;;;;;;;;;;5170670;27;20235;-67
2022/04/02 15:55:13;;;;;;;1999.90;999.90;;;;;;;;;;5170454;27;20720;-68
2022/04/02 15:58:17;;;;;;;1999.90;999.90;;;;;;;;;;5169650;27;20256;-68
2022/04/02 16:01:03;;;;;;;1999.90;999.90;;;;;;;;;;5159418;27;20720;-67
2022/04/02 16:03:49;;;;;;;1999.90;999.90;;;;;;;;;;5156619;27;20197;-68
2022/04/02 16:06:36;;;;;;;1999.90;999.90;;;;;;;;;;5156645;27;20206;-68
2022/04/02 16:09:42;;;;;;;1999.90;999.90;;;;;;;;;;5155504;27;20218;-68
2022/04/02 16:12:31;;;;;;;1999.90;999.90;;;;;;;;;;5156453;27;20218;-67
2022/04/02 16:15:29;;;;;;;1999.90;999.90;;;;;;;;;;5156436;27;20208;-68
2022/04/02 16:18:22;;;;;;;1999.90;999.90;;;;;;;;;;5154291;27;20389;-67
2022/04/02 16:21:17;;;;;;;1999.90;999.90;;;;;;;;;;5156250;27;20219;-66
2022/04/02 16:24:02;;;;;;;1999.90;999.90;;;;;;;;;;5156243;27;20878;-67
2022/04/02 16:26:50;;;;;;;1999.90;999.90;;;;;;;;;;5156158;27;20202;-68
2022/04/02 16:29:37;;;;;;;1999.90;999.90;;;;;;;;;;5155205;27;20681;-67
2022/04/02 16:32:23;;;;;;;1999.90;999.90;;;;;;;;;;5155961;27;20214;-67
2022/04/02 16:35:09;;;;;;;1999.90;999.90;;;;;;;;;;5156131;27;20255;-67
2022/04/02 16:38:03;;;;;;;1999.90;999.90;;;;;;;;;;5155980;27;20210;-67
2022/04/02 16:40:48;;;;;;;1999.90;999.90;;;;;;;;;;5156304;27;20723;-68
2022/04/02 16:43:34;;;;;;;1999.90;999.90;;;;;;;;;;5156290;27;20213;-68
2022/04/02 16:46:32;;;;;;;1999.90;999.90;;;;;;;;;;5155211;27;20397;-70
2022/04/02 16:49:18;;;;;;;1999.90;999.90;;;;;;;;;;5154850;27;20349;-69
2022/04/02 16:52:05;;;;;;;1999.90;999.90;;;;;;;;;;5155700;27;20230;-68
2022/04/02 16:54:50;;;;;;;1999.90;999.90;;;;;;;;;;5155425;27;20211;-68
2022/04/02 16:57:38;;;;;;;1999.90;999.90;;;;;;;;;;5155121;27;20579;-67
2022/04/02 17:00:29;;;;;;;1999.90;999.90;;;;;;;;;;5155381;27;20207;-66
2022/04/02 17:03:21;;;;;;;1999.90;999.90;;;;;;;;;;5155779;27;20628;-68
2022/04/02 17:06:05;;;;;;;1999.90;999.90;;;;;;;;;;5155443;27;20202;-67
2022/04/02 17:08:50;;;;;;;1999.90;999.90;;;;;;;;;;5155362;27;20441;-69
2022/04/02 17:11:36;;;;;;;1999.90;999.90;;;;;;;;;;5154312;27;20245;-68
2022/04/02 17:14:28;;;;;;;1999.90;999.90;;;;;;;;;;5155331;27;20205;-69
2022/04/02 17:17:18;;;;;;;1999.90;999.90;;;;;;;;;;5155361;27;20207;-67
2022/04/02 17:20:05;;;;;;;1999.90;999.90;;;;;;;;;;5154525;27;20204;-69
2022/04/02 17:22:50;;;;;;;1999.90;999.90;;;;;;;;;;5155041;27;20705;-68
2022/04/02 17:25:36;;;;;;;1999.90;999.90;;;;;;;;;;5154965;27;20202;-68
2022/04/02 17:28:21;;;;;;;1999.90;999.90;;;;;;;;;;5154100;27;20206;-69
2022/04/02 17:31:06;;;;;;;1999.90;999.90;;;;;;;;;;5154666;27;20234;-69
2022/04/02 17:33:51;;;;;;;1999.90;999.90;;;;;;;;;;5154903;27;20609;-69
2022/04/02 17:36:37;;;;;;;1999.90;999.90;;;;;;;;;;5154723;27;20312;-68
2022/04/02 17:39:22;;;;;;;1999.90;999.90;;;;;;;;;;5154160;27;20198;-69
2022/04/02 17:42:07;;;;;;;1999.90;999.90;;;;;;;;;;5154655;27;20274;-69
2022/04/02 17:45:11;;;;;;;1999.90;999.90;;;;;;;;;;5155120;27;20283;-69
2022/04/02 17:47:57;;;;;;;1999.90;999.90;;;;;;;;;;5153788;27;20199;-70
2022/04/02 17:50:46;;;;;;;1999.90;999.90;;;;;;;;;;5154117;27;20295;-69
2022/04/02 17:53:34;;;;;;;1999.90;999.90;;;;;;;;;;5154083;27;20722;-68
2022/04/02 17:56:23;;;;;;;1999.90;999.90;;;;;;;;;;5154426;27;20202;-68
2022/04/02 17:59:08;;;;;;;1999.90;999.90;;;;;;;;;;5153508;27;20315;-69
2022/04/02 18:02:01;;;;;;;1999.90;999.90;;;;;;;;;;5154158;27;20292;-69
2022/04/02 18:04:53;;;;;;;1999.90;999.90;;;;;;;;;;5154363;27;20899;-68
2022/04/02 18:07:38;;;;;;;1999.90;999.90;;;;;;;;;;5153751;27;20333;-68
2022/04/02 18:10:24;;;;;;;1999.90;999.90;;;;;;;;;;5153831;27;20240;-69
2022/04/02 18:13:09;;;;;;;1999.90;999.90;;;;;;;;;;5154283;27;20692;-69
2022/04/02 18:15:54;;;;;;;1999.90;999.90;;;;;;;;;;5153907;27;20688;-69
2022/04/02 18:18:39;;;;;;;1999.90;999.90;;;;;;;;;;5152204;27;20942;-69
2022/04/02 18:21:28;;;;;;;1999.90;999.90;;;;;;;;;;5153979;27;20355;-70
2022/04/02 18:24:13;;;;;;;1999.90;999.90;;;;;;;;;;5153702;27;20729;-69
2022/04/02 18:27:00;;;;;;;1999.90;999.90;;;;;;;;;;5153931;27;20581;-69
2022/04/02 18:29:45;;;;;;;1999.90;999.90;;;;;;;;;;5152966;27;20353;-69
2022/04/02 18:32:32;;;;;;;1999.90;999.90;;;;;;;;;;5153883;27;20295;-69
2022/04/02 18:35:17;;;;;;;1999.90;999.90;;;;;;;;;;5153772;27;20215;-69
2022/04/02 18:38:02;;;;;;;1999.90;999.90;;;;;;;;;;5152754;27;20294;-69
2022/04/02 18:40:47;;;;;;;1999.90;999.90;;;;;;;;;;5153662;27;20255;-69
2022/04/02 18:43:34;;;;;;;1999.90;999.90;;;;;;;;;;5153600;27;20198;-68
2022/04/02 18:46:19;;;;;;;1999.90;999.90;;;;;;;;;;5147775;27;20198;-69
2022/04/02 18:49:04;;;;;;;1999.90;999.90;;;;;;;;;;5135721;27;20203;-69
2022/04/02 18:51:49;;;;;;;1999.90;999.90;;;;;;;;;;5143304;27;20707;-69
2022/04/02 18:54:34;;;;;;;1999.90;999.90;;;;;;;;;;5132923;28;20292;-70
2022/04/02 18:57:19;;;;;;;1999.90;999.90;;;;;;;;;;5146261;27;20572;-70
2022/04/02 19:00:06;;;;;;;1999.90;999.90;;;;;;;;;;5137255;27;20351;-70
2022/04/02 19:02:51;;;;;;;1999.90;999.90;;;;;;;;;;5138789;27;20275;-69
2022/04/02 19:05:35;;;;;;;1999.90;999.90;;;;;;;;;;5147957;27;20740;-69
2022/04/02 19:08:21;;;;;;;1999.90;999.90;;;;;;;;;;5131608;27;20602;-68
2022/04/02 19:11:06;;;;;;;1999.90;999.90;;;;;;;;;;5144668;27;20228;-69
2022/04/02 19:13:51;;;;;;;1999.90;999.90;;;;;;;;;;5153010;27;20218;-68
2022/04/02 19:16:37;;;;;;;1999.90;999.90;;;;;;;;;;5131583;28;20410;-68
2022/04/02 19:19:24;;;;;;;1999.90;999.90;;;;;;;;;;5144736;27;20197;-69
2022/04/02 19:22:09;;;;;;;1999.90;999.90;;;;;;;;;;5150654;27;20226;-68
2022/04/02 19:24:54;;;;;;;1999.90;999.90;;;;;;;;;;5152816;27;20283;-68
2022/04/02 19:27:39;;;;;;;1999.90;999.90;;;;;;;;;;5152699;27;20201;-68
2022/04/02 19:30:24;;;;;;;1999.90;999.90;;;;;;;;;;5152402;27;20226;-68
2022/04/02 19:33:10;;;;;;;1999.90;999.90;;;;;;;;;;5152617;27;20205;-68
2022/04/02 19:35:55;;;;;;;1999.90;999.90;;;;;;;;;;5151913;27;20263;-69
2022/04/02 19:38:40;;;;;;;1999.90;999.90;;;;;;;;;;5156121;27;20699;-68
2022/04/02 19:41:25;;;;;;;1999.90;999.90;;;;;;;;;;5156807;27;20225;-69
2022/04/02 19:44:10;;;;;;;1999.90;999.90;;;;;;;;;;5156485;27;20237;-68
2022/04/02 19:46:55;;;;;;;1999.90;999.90;;;;;;;;;;5155809;27;20404;-68
2022/04/02 19:49:41;;;;;;;1999.90;999.90;;;;;;;;;;5155930;27;20217;-68
2022/04/02 19:52:28;;;;;;;1999.90;999.90;;;;;;;;;;5156623;27;20229;-68
2022/04/02 19:55:13;;;;;;;1999.90;999.90;;;;;;;;;;5156391;27;20699;-69
2022/04/02 19:57:58;;;;;;;1999.90;999.90;;;;;;;;;;5155876;27;20254;-69
2022/04/02 20:00:44;;;;;;;1999.90;999.90;;;;;;;;;;5156102;27;20255;-68
2022/04/02 20:03:29;;;;;;;1999.90;999.90;;;;;;;;;;5156343;27;20213;-69
2022/04/02 20:06:15;;;;;;;1999.90;999.90;;;;;;;;;;5156165;27;20201;-68
2022/04/02 20:09:00;;;;;;;1999.90;999.90;;;;;;;;;;5155179;27;20206;-68
2022/04/02 20:11:45;;;;;;;1999.90;999.90;;;;;;;;;;5156276;27;20213;-68
2022/04/02 20:14:30;;;;;;;1999.90;999.90;;;;;;;;;;5156361;27;20225;-68
2022/04/02 20:17:15;;;;;;;1999.90;999.90;;;;;;;;;;5156133;27;20206;-68
2022/04/02 20:20:00;;;;;;;1999.90;999.90;;;;;;;;;;5155087;27;20324;-69
2022/04/02 20:22:46;;;;;;;1999.90;999.90;;;;;;;;;;5155204;27;20241;-68
2022/04/02 20:25:31;;;;;;;1999.90;999.90;;;;;;;;;;5154426;27;20544;-69
2022/04/02 20:28:16;;;;;;;1999.90;999.90;;;;;;;;;;5155382;27;20263;-68
2022/04/02 20:31:01;;;;;;;1999.90;999.90;;;;;;;;;;5155708;27;20225;-68
2022/04/02 20:33:46;;;;;;;1999.90;999.90;;;;;;;;;;5155295;27;20209;-68
2022/04/02 20:36:31;;;;;;;1999.90;999.90;;;;;;;;;;5155284;27;20202;-69
2022/04/02 20:39:18;;;;;;;1999.90;999.90;;;;;;;;;;5154728;27;20200;-68
2022/04/02 20:42:04;;;;;;;1999.90;999.90;;;;;;;;;;5156016;27;20218;-68
2022/04/02 20:44:49;;;;;;;1999.90;999.90;;;;;;;;;;5155801;27;20283;-68
2022/04/02 20:47:36;;;;;;;1999.90;999.90;;;;;;;;;;5155496;27;20719;-66
2022/04/02 20:50:21;;;;;;;1999.90;999.90;;;;;;;;;;5154975;27;20699;-69
2022/04/02 20:53:09;;;;;;;1999.90;999.90;;;;;;;;;;5155594;27;20209;-69
2022/04/02 20:55:56;;;;;;;1999.90;999.90;;;;;;;;;;5148731;27;20300;-68
2022/04/02 20:58:41;;;;;;;1999.90;999.90;;;;;;;;;;5154676;27;20225;-67
2022/04/02 21:17:45;;;;;;;1999.90;999.90;;;;;;;;;;5058748;28;20747;-67